sensor_id;sensor_type;location;lat;lon;timestamp;P1;durP1;ratioP1;P2;durP2;ratioP2
16792;SDS011;8513;42.662;23.350;2022-12-18T00:02:20;4.47;;;4.07;;
16792;SDS011;8513;42.662;23.350;2022-12-18T00:04:47;4.07;;;3.73;;
16792;SDS011;8513;42.662;23.350;2022-12-18T00:07:12;4.37;;;3.97;;
16792;SDS011;8513;42.662;23.350;2022-12-18T00:09:37;4.80;;;4.33;;
16792;SDS011;8513;42.662;23.350;2022-12-18T00:12:03;5.13;;;4.60;;
16792;SDS011;8513;42.662;23.350;2022-12-18T00:14:29;5.73;;;5.13;;
16792;SDS011;8513;42.662;23.350;2022-12-18T00:16:54;5.00;;;4.60;;
16792;SDS011;8513;42.662;23.350;2022-12-18T00:19:19;5.23;;;4.73;;
16792;SDS011;8513;42.662;23.350;2022-12-18T00:21:45;5.43;;;4.93;;
16792;SDS011;8513;42.662;23.350;2022-12-18T00:24:10;5.80;;;5.30;;
16792;SDS011;8513;42.662;23.350;2022-12-18T00:26:37;6.20;;;5.20;;
16792;SDS011;8513;42.662;23.350;2022-12-18T00:29:05;5.80;;;5.20;;
16792;SDS011;8513;42.662;23.350;2022-12-18T00:31:41;5.17;;;4.70;;
16792;SDS011;8513;42.662;23.350;2022-12-18T00:34:09;5.67;;;5.17;;
16792;SDS011;8513;42.662;23.350;2022-12-18T00:36:36;5.57;;;5.03;;
16792;SDS011;8513;42.662;23.350;2022-12-18T00:39:03;6.30;;;5.70;;
16792;SDS011;8513;42.662;23.350;2022-12-18T00:41:30;6.37;;;5.77;;
16792;SDS011;8513;42.662;23.350;2022-12-18T00:44:14;6.40;;;5.80;;
16792;SDS011;8513;42.662;23.350;2022-12-18T00:46:42;5.93;;;5.43;;
16792;SDS011;8513;42.662;23.350;2022-12-18T00:49:08;6.23;;;5.63;;
16792;SDS011;8513;42.662;23.350;2022-12-18T00:51:34;6.87;;;6.17;;
16792;SDS011;8513;42.662;23.350;2022-12-18T00:53:59;7.13;;;6.43;;
16792;SDS011;8513;42.662;23.350;2022-12-18T00:56:25;7.63;;;6.93;;
16792;SDS011;8513;42.662;23.350;2022-12-18T00:58:50;7.10;;;6.40;;
16792;SDS011;8513;42.662;23.350;2022-12-18T01:01:16;6.50;;;5.90;;
16792;SDS011;8513;42.662;23.350;2022-12-18T01:03:42;6.47;;;5.87;;
16792;SDS011;8513;42.662;23.350;2022-12-18T01:06:11;7.43;;;6.67;;
16792;SDS011;8513;42.662;23.350;2022-12-18T01:08:38;8.40;;;6.73;;
16792;SDS011;8513;42.662;23.350;2022-12-18T01:11:07;7.13;;;6.53;;
16792;SDS011;8513;42.662;23.350;2022-12-18T01:13:38;7.30;;;6.70;;
16792;SDS011;8513;42.662;23.350;2022-12-18T01:16:04;8.47;;;7.67;;
16792;SDS011;8513;42.662;23.350;2022-12-18T01:18:30;7.70;;;6.90;;
16792;SDS011;8513;42.662;23.350;2022-12-18T01:20:55;7.37;;;6.67;;
16792;SDS011;8513;42.662;23.350;2022-12-18T01:23:21;7.30;;;6.10;;
16792;SDS011;8513;42.662;23.350;2022-12-18T01:25:46;6.90;;;6.30;;
16792;SDS011;8513;42.662;23.350;2022-12-18T01:28:12;6.40;;;5.80;;
16792;SDS011;8513;42.662;23.350;2022-12-18T01:30:37;7.13;;;6.43;;
16792;SDS011;8513;42.662;23.350;2022-12-18T01:33:06;7.33;;;6.63;;
16792;SDS011;8513;42.662;23.350;2022-12-18T01:35:31;7.73;;;6.17;;
16792;SDS011;8513;42.662;23.350;2022-12-18T01:37:57;6.93;;;6.20;;
16792;SDS011;8513;42.662;23.350;2022-12-18T01:40:22;7.50;;;6.70;;
16792;SDS011;8513;42.662;23.350;2022-12-18T01:42:52;7.77;;;6.97;;
16792;SDS011;8513;42.662;23.350;2022-12-18T01:47:44;7.27;;;6.57;;
16792;SDS011;8513;42.662;23.350;2022-12-18T01:50:13;8.00;;;7.20;;
16792;SDS011;8513;42.662;23.350;2022-12-18T01:52:40;7.87;;;7.07;;
16792;SDS011;8513;42.662;23.350;2022-12-18T01:55:08;7.70;;;7.00;;
16792;SDS011;8513;42.662;23.350;2022-12-18T01:57:36;7.90;;;7.07;;
16792;SDS011;8513;42.662;23.350;2022-12-18T02:00:10;8.80;;;7.37;;
16792;SDS011;8513;42.662;23.350;2022-12-18T02:02:39;7.57;;;6.77;;
16792;SDS011;8513;42.662;23.350;2022-12-18T02:05:06;7.70;;;6.87;;
16792;SDS011;8513;42.662;23.350;2022-12-18T02:07:42;8.07;;;7.00;;
16792;SDS011;8513;42.662;23.350;2022-12-18T02:13:05;7.53;;;6.83;;
16792;SDS011;8513;42.662;23.350;2022-12-18T02:18:17;8.50;;;6.93;;
16792;SDS011;8513;42.662;23.350;2022-12-18T02:20:54;7.67;;;6.87;;
16792;SDS011;8513;42.662;23.350;2022-12-18T02:28:40;8.23;;;6.63;;
16792;SDS011;8513;42.662;23.350;2022-12-18T02:31:11;8.93;;;7.10;;
16792;SDS011;8513;42.662;23.350;2022-12-18T02:33:39;7.60;;;6.80;;
16792;SDS011;8513;42.662;23.350;2022-12-18T02:36:07;7.93;;;7.13;;
16792;SDS011;8513;42.662;23.350;2022-12-18T02:38:34;7.37;;;6.60;;
16792;SDS011;8513;42.662;23.350;2022-12-18T02:41:01;7.80;;;7.07;;
16792;SDS011;8513;42.662;23.350;2022-12-18T02:43:28;8.17;;;7.27;;
16792;SDS011;8513;42.662;23.350;2022-12-18T02:45:56;6.70;;;6.00;;
16792;SDS011;8513;42.662;23.350;2022-12-18T02:48:24;7.57;;;6.77;;
16792;SDS011;8513;42.662;23.350;2022-12-18T02:54:00;6.33;;;5.70;;
16792;SDS011;8513;42.662;23.350;2022-12-18T02:56:46;6.80;;;6.20;;
16792;SDS011;8513;42.662;23.350;2022-12-18T02:59:17;6.77;;;6.07;;
16792;SDS011;8513;42.662;23.350;2022-12-18T03:05:01;7.33;;;6.63;;
16792;SDS011;8513;42.662;23.350;2022-12-18T03:08:03;7.37;;;6.63;;
16792;SDS011;8513;42.662;23.350;2022-12-18T03:10:23;6.77;;;6.07;;
16792;SDS011;8513;42.662;23.350;2022-12-18T03:13:03;7.03;;;6.37;;
16792;SDS011;8513;42.662;23.350;2022-12-18T03:15:35;9.03;;;6.53;;
16792;SDS011;8513;42.662;23.350;2022-12-18T03:18:07;7.20;;;6.50;;
16792;SDS011;8513;42.662;23.350;2022-12-18T03:20:37;7.87;;;6.83;;
16792;SDS011;8513;42.662;23.350;2022-12-18T03:23:11;7.47;;;6.63;;
16792;SDS011;8513;42.662;23.350;2022-12-18T03:25:42;6.77;;;6.17;;
16792;SDS011;8513;42.662;23.350;2022-12-18T03:28:12;7.17;;;6.43;;
16792;SDS011;8513;42.662;23.350;2022-12-18T03:30:40;6.93;;;6.33;;
16792;SDS011;8513;42.662;23.350;2022-12-18T03:33:10;7.53;;;6.83;;
16792;SDS011;8513;42.662;23.350;2022-12-18T03:35:42;7.83;;;6.80;;
16792;SDS011;8513;42.662;23.350;2022-12-18T03:38:09;7.93;;;6.90;;
16792;SDS011;8513;42.662;23.350;2022-12-18T03:40:41;6.97;;;6.37;;
16792;SDS011;8513;42.662;23.350;2022-12-18T03:43:26;7.47;;;6.77;;
16792;SDS011;8513;42.662;23.350;2022-12-18T03:46:06;7.73;;;6.70;;
16792;SDS011;8513;42.662;23.350;2022-12-18T03:48:47;7.33;;;6.53;;
16792;SDS011;8513;42.662;23.350;2022-12-18T03:51:27;7.20;;;6.53;;
16792;SDS011;8513;42.662;23.350;2022-12-18T03:54:00;7.37;;;6.57;;
16792;SDS011;8513;42.662;23.350;2022-12-18T03:56:29;7.50;;;6.67;;
16792;SDS011;8513;42.662;23.350;2022-12-18T03:58:58;6.83;;;6.17;;
16792;SDS011;8513;42.662;23.350;2022-12-18T04:01:28;7.70;;;6.70;;
16792;SDS011;8513;42.662;23.350;2022-12-18T04:04:09;7.07;;;6.37;;
16792;SDS011;8513;42.662;23.350;2022-12-18T04:06:37;6.70;;;6.10;;
16792;SDS011;8513;42.662;23.350;2022-12-18T04:09:05;7.67;;;6.87;;
16792;SDS011;8513;42.662;23.350;2022-12-18T04:11:31;6.77;;;6.17;;
16792;SDS011;8513;42.662;23.350;2022-12-18T04:13:57;6.97;;;6.30;;
16792;SDS011;8513;42.662;23.350;2022-12-18T04:16:24;7.53;;;6.73;;
16792;SDS011;8513;42.662;23.350;2022-12-18T04:18:50;9.40;;;6.77;;
16792;SDS011;8513;42.662;23.350;2022-12-18T04:21:15;7.40;;;6.70;;
16792;SDS011;8513;42.662;23.350;2022-12-18T04:23:41;7.67;;;6.87;;
16792;SDS011;8513;42.662;23.350;2022-12-18T04:26:06;7.40;;;6.63;;
16792;SDS011;8513;42.662;23.350;2022-12-18T04:28:32;8.17;;;7.37;;
16792;SDS011;8513;42.662;23.350;2022-12-18T04:30:57;8.10;;;7.30;;
16792;SDS011;8513;42.662;23.350;2022-12-18T04:33:23;8.77;;;7.07;;
16792;SDS011;8513;42.662;23.350;2022-12-18T04:35:48;8.87;;;7.80;;
16792;SDS011;8513;42.662;23.350;2022-12-18T04:38:13;8.17;;;7.37;;
16792;SDS011;8513;42.662;23.350;2022-12-18T04:40:39;8.40;;;7.60;;
16792;SDS011;8513;42.662;23.350;2022-12-18T04:43:05;8.70;;;7.80;;
16792;SDS011;8513;42.662;23.350;2022-12-18T04:45:31;7.90;;;7.10;;
16792;SDS011;8513;42.662;23.350;2022-12-18T04:47:57;9.03;;;7.57;;
16792;SDS011;8513;42.662;23.350;2022-12-18T04:50:24;9.03;;;8.13;;
16792;SDS011;8513;42.662;23.350;2022-12-18T04:52:49;9.03;;;8.13;;
16792;SDS011;8513;42.662;23.350;2022-12-18T04:55:14;8.73;;;7.90;;
16792;SDS011;8513;42.662;23.350;2022-12-18T04:57:40;9.03;;;8.03;;
16792;SDS011;8513;42.662;23.350;2022-12-18T05:00:05;9.83;;;8.87;;
16792;SDS011;8513;42.662;23.350;2022-12-18T05:02:32;10.87;;;9.13;;
16792;SDS011;8513;42.662;23.350;2022-12-18T05:04:58;10.27;;;8.73;;
16792;SDS011;8513;42.662;23.350;2022-12-18T05:07:23;9.63;;;8.73;;
16792;SDS011;8513;42.662;23.350;2022-12-18T05:09:49;9.73;;;8.37;;
16792;SDS011;8513;42.662;23.350;2022-12-18T05:12:14;10.33;;;8.63;;
16792;SDS011;8513;42.662;23.350;2022-12-18T05:14:39;10.03;;;8.90;;
16792;SDS011;8513;42.662;23.350;2022-12-18T05:17:05;9.70;;;8.70;;
16792;SDS011;8513;42.662;23.350;2022-12-18T05:19:30;9.90;;;8.90;;
16792;SDS011;8513;42.662;23.350;2022-12-18T05:21:56;9.97;;;9.03;;
16792;SDS011;8513;42.662;23.350;2022-12-18T05:24:22;10.67;;;9.57;;
16792;SDS011;8513;42.662;23.350;2022-12-18T05:26:48;9.93;;;8.97;;
16792;SDS011;8513;42.662;23.350;2022-12-18T05:29:13;10.73;;;9.57;;
16792;SDS011;8513;42.662;23.350;2022-12-18T05:31:38;9.93;;;8.93;;
16792;SDS011;8513;42.662;23.350;2022-12-18T05:34:04;10.77;;;9.67;;
16792;SDS011;8513;42.662;23.350;2022-12-18T05:36:30;11.83;;;10.60;;
16792;SDS011;8513;42.662;23.350;2022-12-18T05:38:55;11.60;;;10.17;;
16792;SDS011;8513;42.662;23.350;2022-12-18T05:41:21;10.93;;;9.37;;
16792;SDS011;8513;42.662;23.350;2022-12-18T05:43:46;11.83;;;9.60;;
16792;SDS011;8513;42.662;23.350;2022-12-18T05:46:13;11.20;;;9.70;;
16792;SDS011;8513;42.662;23.350;2022-12-18T05:48:40;10.07;;;8.90;;
16792;SDS011;8513;42.662;23.350;2022-12-18T05:51:08;9.73;;;8.73;;
16792;SDS011;8513;42.662;23.350;2022-12-18T05:53:35;11.23;;;10.03;;
16792;SDS011;8513;42.662;23.350;2022-12-18T05:56:03;11.83;;;10.23;;
16792;SDS011;8513;42.662;23.350;2022-12-18T05:58:30;13.00;;;10.87;;
16792;SDS011;8513;42.662;23.350;2022-12-18T06:00:56;10.90;;;9.53;;
16792;SDS011;8513;42.662;23.350;2022-12-18T06:03:22;11.57;;;10.37;;
16792;SDS011;8513;42.662;23.350;2022-12-18T06:05:48;11.00;;;9.90;;
16792;SDS011;8513;42.662;23.350;2022-12-18T06:08:13;12.90;;;10.67;;
16792;SDS011;8513;42.662;23.350;2022-12-18T06:10:39;14.13;;;10.97;;
16792;SDS011;8513;42.662;23.350;2022-12-18T06:13:05;12.73;;;10.60;;
16792;SDS011;8513;42.662;23.350;2022-12-18T06:15:31;11.10;;;10.00;;
16792;SDS011;8513;42.662;23.350;2022-12-18T06:17:57;11.90;;;9.73;;
16792;SDS011;8513;42.662;23.350;2022-12-18T06:20:22;12.93;;;11.10;;
16792;SDS011;8513;42.662;23.350;2022-12-18T06:22:48;11.63;;;10.43;;
16792;SDS011;8513;42.662;23.350;2022-12-18T06:25:13;11.97;;;10.43;;
16792;SDS011;8513;42.662;23.350;2022-12-18T06:27:39;11.90;;;10.70;;
16792;SDS011;8513;42.662;23.350;2022-12-18T06:30:05;13.13;;;11.73;;
16792;SDS011;8513;42.662;23.350;2022-12-18T06:32:31;12.00;;;10.70;;
16792;SDS011;8513;42.662;23.350;2022-12-18T06:34:57;11.83;;;10.63;;
16792;SDS011;8513;42.662;23.350;2022-12-18T06:37:22;13.40;;;11.67;;
16792;SDS011;8513;42.662;23.350;2022-12-18T06:39:51;12.87;;;10.80;;
16792;SDS011;8513;42.662;23.350;2022-12-18T06:42:21;13.30;;;11.10;;
16792;SDS011;8513;42.662;23.350;2022-12-18T06:44:47;12.50;;;11.20;;
16792;SDS011;8513;42.662;23.350;2022-12-18T06:47:12;13.57;;;11.77;;
16792;SDS011;8513;42.662;23.350;2022-12-18T06:49:37;12.60;;;11.00;;
16792;SDS011;8513;42.662;23.350;2022-12-18T06:52:03;12.43;;;11.13;;
16792;SDS011;8513;42.662;23.350;2022-12-18T06:54:28;12.77;;;11.10;;
16792;SDS011;8513;42.662;23.350;2022-12-18T06:56:54;13.80;;;11.43;;
16792;SDS011;8513;42.662;23.350;2022-12-18T06:59:19;14.23;;;11.70;;
16792;SDS011;8513;42.662;23.350;2022-12-18T07:01:45;12.43;;;11.13;;
16792;SDS011;8513;42.662;23.350;2022-12-18T07:04:10;15.47;;;11.37;;
16792;SDS011;8513;42.662;23.350;2022-12-18T07:06:36;13.07;;;11.27;;
16792;SDS011;8513;42.662;23.350;2022-12-18T07:09:01;11.93;;;10.73;;
16792;SDS011;8513;42.662;23.350;2022-12-18T07:11:27;12.43;;;10.87;;
16792;SDS011;8513;42.662;23.350;2022-12-18T07:13:52;13.30;;;11.90;;
16792;SDS011;8513;42.662;23.350;2022-12-18T07:16:21;13.73;;;11.13;;
16792;SDS011;8513;42.662;23.350;2022-12-18T07:18:47;13.07;;;11.60;;
16792;SDS011;8513;42.662;23.350;2022-12-18T07:21:14;14.00;;;11.90;;
16792;SDS011;8513;42.662;23.350;2022-12-18T07:23:40;13.70;;;11.30;;
16792;SDS011;8513;42.662;23.350;2022-12-18T07:26:08;12.90;;;11.50;;
16792;SDS011;8513;42.662;23.350;2022-12-18T07:28:37;13.77;;;12.03;;
16792;SDS011;8513;42.662;23.350;2022-12-18T07:31:11;14.73;;;12.03;;
16792;SDS011;8513;42.662;23.350;2022-12-18T07:33:39;13.80;;;12.20;;
16792;SDS011;8513;42.662;23.350;2022-12-18T07:36:05;12.83;;;11.53;;
16792;SDS011;8513;42.662;23.350;2022-12-18T07:38:32;13.30;;;11.90;;
16792;SDS011;8513;42.662;23.350;2022-12-18T07:41:09;15.60;;;13.57;;
16792;SDS011;8513;42.662;23.350;2022-12-18T07:43:36;14.83;;;13.10;;
16792;SDS011;8513;42.662;23.350;2022-12-18T07:46:02;13.60;;;12.20;;
16792;SDS011;8513;42.662;23.350;2022-12-18T07:48:29;14.07;;;12.63;;
16792;SDS011;8513;42.662;23.350;2022-12-18T07:50:58;16.57;;;13.33;;
16792;SDS011;8513;42.662;23.350;2022-12-18T07:53:27;15.30;;;13.60;;
16792;SDS011;8513;42.662;23.350;2022-12-18T07:55:56;15.47;;;13.60;;
16792;SDS011;8513;42.662;23.350;2022-12-18T07:58:23;16.23;;;14.43;;
16792;SDS011;8513;42.662;23.350;2022-12-18T08:00:48;16.47;;;14.67;;
16792;SDS011;8513;42.662;23.350;2022-12-18T08:03:14;16.13;;;14.43;;
16792;SDS011;8513;42.662;23.350;2022-12-18T08:05:39;15.53;;;13.67;;
16792;SDS011;8513;42.662;23.350;2022-12-18T08:08:05;18.70;;;15.20;;
16792;SDS011;8513;42.662;23.350;2022-12-18T08:10:30;15.90;;;14.20;;
16792;SDS011;8513;42.662;23.350;2022-12-18T08:12:56;16.37;;;14.50;;
16792;SDS011;8513;42.662;23.350;2022-12-18T08:15:21;17.33;;;15.50;;
16792;SDS011;8513;42.662;23.350;2022-12-18T08:17:46;17.77;;;14.80;;
16792;SDS011;8513;42.662;23.350;2022-12-18T08:20:12;16.47;;;14.73;;
16792;SDS011;8513;42.662;23.350;2022-12-18T08:22:40;17.47;;;15.67;;
16792;SDS011;8513;42.662;23.350;2022-12-18T08:25:08;18.23;;;16.03;;
16792;SDS011;8513;42.662;23.350;2022-12-18T08:27:34;18.30;;;16.13;;
16792;SDS011;8513;42.662;23.350;2022-12-18T08:29:59;17.30;;;15.40;;
16792;SDS011;8513;42.662;23.350;2022-12-18T08:32:26;18.97;;;16.27;;
16792;SDS011;8513;42.662;23.350;2022-12-18T08:34:52;19.30;;;15.83;;
16792;SDS011;8513;42.662;23.350;2022-12-18T08:37:18;17.33;;;15.50;;
16792;SDS011;8513;42.662;23.350;2022-12-18T08:39:43;18.30;;;15.87;;
16792;SDS011;8513;42.662;23.350;2022-12-18T08:42:09;19.03;;;15.60;;
16792;SDS011;8513;42.662;23.350;2022-12-18T08:44:53;18.00;;;14.23;;
16792;SDS011;8513;42.662;23.350;2022-12-18T08:47:19;17.33;;;15.37;;
16792;SDS011;8513;42.662;23.350;2022-12-18T08:49:44;17.60;;;14.67;;
16792;SDS011;8513;42.662;23.350;2022-12-18T08:52:10;17.40;;;14.30;;
16792;SDS011;8513;42.662;23.350;2022-12-18T08:54:36;19.13;;;16.17;;
16792;SDS011;8513;42.662;23.350;2022-12-18T08:57:01;16.83;;;14.57;;
16792;SDS011;8513;42.662;23.350;2022-12-18T08:59:28;17.90;;;15.83;;
16792;SDS011;8513;42.662;23.350;2022-12-18T09:01:54;17.20;;;14.53;;
16792;SDS011;8513;42.662;23.350;2022-12-18T09:04:20;17.03;;;14.67;;
16792;SDS011;8513;42.662;23.350;2022-12-18T09:06:45;15.73;;;13.70;;
16792;SDS011;8513;42.662;23.350;2022-12-18T09:09:11;16.60;;;14.70;;
16792;SDS011;8513;42.662;23.350;2022-12-18T09:11:37;16.70;;;14.73;;
16792;SDS011;8513;42.662;23.350;2022-12-18T09:14:02;17.90;;;15.70;;
16792;SDS011;8513;42.662;23.350;2022-12-18T09:16:28;17.13;;;15.07;;
16792;SDS011;8513;42.662;23.350;2022-12-18T09:18:55;18.63;;;16.03;;
16792;SDS011;8513;42.662;23.350;2022-12-18T09:21:25;17.33;;;15.00;;
16792;SDS011;8513;42.662;23.350;2022-12-18T09:23:52;17.57;;;15.53;;
16792;SDS011;8513;42.662;23.350;2022-12-18T09:26:20;18.33;;;14.50;;
16792;SDS011;8513;42.662;23.350;2022-12-18T09:28:48;16.43;;;14.23;;
16792;SDS011;8513;42.662;23.350;2022-12-18T09:31:14;18.43;;;15.07;;
16792;SDS011;8513;42.662;23.350;2022-12-18T09:33:40;16.30;;;13.90;;
16792;SDS011;8513;42.662;23.350;2022-12-18T09:36:06;15.50;;;13.87;;
16792;SDS011;8513;42.662;23.350;2022-12-18T09:38:34;16.37;;;13.67;;
16792;SDS011;8513;42.662;23.350;2022-12-18T09:41:01;16.40;;;13.53;;
16792;SDS011;8513;42.662;23.350;2022-12-18T09:43:34;14.73;;;12.97;;
16792;SDS011;8513;42.662;23.350;2022-12-18T09:46:08;15.33;;;12.57;;
16792;SDS011;8513;42.662;23.350;2022-12-18T09:48:45;16.17;;;13.23;;
16792;SDS011;8513;42.662;23.350;2022-12-18T09:51:15;15.77;;;12.93;;
16792;SDS011;8513;42.662;23.350;2022-12-18T09:53:46;16.47;;;13.03;;
16792;SDS011;8513;42.662;23.350;2022-12-18T09:56:18;14.30;;;12.77;;
16792;SDS011;8513;42.662;23.350;2022-12-18T09:59:14;16.67;;;13.00;;
16792;SDS011;8513;42.662;23.350;2022-12-18T10:01:43;15.83;;;13.80;;
16792;SDS011;8513;42.662;23.350;2022-12-18T10:04:08;14.23;;;12.73;;
16792;SDS011;8513;42.662;23.350;2022-12-18T10:09:06;16.40;;;12.53;;
16792;SDS011;8513;42.662;23.350;2022-12-18T10:19:52;15.83;;;13.17;;
16792;SDS011;8513;42.662;23.350;2022-12-18T10:28:13;17.13;;;13.27;;
16792;SDS011;8513;42.662;23.350;2022-12-18T10:30:40;15.40;;;13.80;;
16792;SDS011;8513;42.662;23.350;2022-12-18T10:33:10;16.20;;;13.77;;
16792;SDS011;8513;42.662;23.350;2022-12-18T10:35:40;17.57;;;13.80;;
16792;SDS011;8513;42.662;23.350;2022-12-18T10:43:24;13.60;;;12.20;;
16792;SDS011;8513;42.662;23.350;2022-12-18T10:46:01;14.90;;;13.10;;
16792;SDS011;8513;42.662;23.350;2022-12-18T10:51:21;15.47;;;12.90;;
16792;SDS011;8513;42.662;23.350;2022-12-18T10:54:03;17.23;;;14.03;;
16792;SDS011;8513;42.662;23.350;2022-12-18T10:56:30;16.83;;;14.50;;
16792;SDS011;8513;42.662;23.350;2022-12-18T10:59:00;16.37;;;13.80;;
16792;SDS011;8513;42.662;23.350;2022-12-18T11:01:27;14.30;;;12.23;;
16792;SDS011;8513;42.662;23.350;2022-12-18T11:04:13;15.03;;;13.43;;
16792;SDS011;8513;42.662;23.350;2022-12-18T11:06:52;16.27;;;13.30;;
16792;SDS011;8513;42.662;23.350;2022-12-18T11:09:24;15.77;;;13.77;;
16792;SDS011;8513;42.662;23.350;2022-12-18T11:11:53;15.83;;;14.00;;
16792;SDS011;8513;42.662;23.350;2022-12-18T11:16:50;16.47;;;12.63;;
16792;SDS011;8513;42.662;23.350;2022-12-18T11:21:46;14.33;;;12.40;;
16792;SDS011;8513;42.662;23.350;2022-12-18T11:24:31;16.10;;;12.50;;
16792;SDS011;8513;42.662;23.350;2022-12-18T11:27:02;13.87;;;11.40;;
16792;SDS011;8513;42.662;23.350;2022-12-18T11:29:40;15.20;;;12.80;;
16792;SDS011;8513;42.662;23.350;2022-12-18T11:32:12;13.77;;;12.03;;
16792;SDS011;8513;42.662;23.350;2022-12-18T11:34:50;14.23;;;11.93;;
16792;SDS011;8513;42.662;23.350;2022-12-18T11:37:37;13.93;;;11.67;;
16792;SDS011;8513;42.662;23.350;2022-12-18T11:40:17;15.23;;;12.20;;
16792;SDS011;8513;42.662;23.350;2022-12-18T11:50:55;15.57;;;12.93;;
16792;SDS011;8513;42.662;23.350;2022-12-18T11:53:18;13.17;;;11.77;;
16792;SDS011;8513;42.662;23.350;2022-12-18T12:04:22;13.03;;;10.97;;
16792;SDS011;8513;42.662;23.350;2022-12-18T12:25:43;15.03;;;12.80;;
16792;SDS011;8513;42.662;23.350;2022-12-18T12:39:46;16.57;;;13.50;;
16792;SDS011;8513;42.662;23.350;2022-12-18T12:42:18;15.97;;;14.23;;
16792;SDS011;8513;42.662;23.350;2022-12-18T12:45:13;15.80;;;13.50;;
16792;SDS011;8513;42.662;23.350;2022-12-18T12:47:47;14.90;;;13.10;;
16792;SDS011;8513;42.662;23.350;2022-12-18T12:50:16;17.77;;;13.47;;
16792;SDS011;8513;42.662;23.350;2022-12-18T12:52:46;16.53;;;13.43;;
16792;SDS011;8513;42.662;23.350;2022-12-18T12:55:20;16.07;;;13.73;;
16792;SDS011;8513;42.662;23.350;2022-12-18T13:03:41;17.13;;;14.47;;
16792;SDS011;8513;42.662;23.350;2022-12-18T13:08:57;18.67;;;16.27;;
16792;SDS011;8513;42.662;23.350;2022-12-18T13:11:29;17.73;;;14.03;;
16792;SDS011;8513;42.662;23.350;2022-12-18T13:20:04;16.60;;;14.70;;
16792;SDS011;8513;42.662;23.350;2022-12-18T13:25:26;17.30;;;14.63;;
16792;SDS011;8513;42.662;23.350;2022-12-18T13:28:15;17.70;;;15.03;;
16792;SDS011;8513;42.662;23.350;2022-12-18T13:30:46;18.40;;;15.30;;
16792;SDS011;8513;42.662;23.350;2022-12-18T13:35:40;17.87;;;15.23;;
16792;SDS011;8513;42.662;23.350;2022-12-18T13:43:53;16.93;;;14.40;;
16792;SDS011;8513;42.662;23.350;2022-12-18T13:51:42;17.00;;;14.33;;
16792;SDS011;8513;42.662;23.350;2022-12-18T13:57:00;17.10;;;14.37;;
16792;SDS011;8513;42.662;23.350;2022-12-18T13:59:34;18.23;;;15.07;;
16792;SDS011;8513;42.662;23.350;2022-12-18T14:02:19;17.90;;;15.00;;
16792;SDS011;8513;42.662;23.350;2022-12-18T14:04:48;19.20;;;15.83;;
16792;SDS011;8513;42.662;23.350;2022-12-18T14:07:16;17.37;;;15.57;;
16792;SDS011;8513;42.662;23.350;2022-12-18T14:09:51;16.67;;;13.77;;
16792;SDS011;8513;42.662;23.350;2022-12-18T14:15:17;17.10;;;13.93;;
16792;SDS011;8513;42.662;23.350;2022-12-18T14:17:52;16.03;;;13.67;;
16792;SDS011;8513;42.662;23.350;2022-12-18T14:20:25;14.93;;;12.77;;
16792;SDS011;8513;42.662;23.350;2022-12-18T14:22:52;14.80;;;12.93;;
16792;SDS011;8513;42.662;23.350;2022-12-18T14:25:19;13.90;;;11.60;;
16792;SDS011;8513;42.662;23.350;2022-12-18T14:30:35;14.77;;;12.43;;
16792;SDS011;8513;42.662;23.350;2022-12-18T14:33:11;12.37;;;11.03;;
16792;SDS011;8513;42.662;23.350;2022-12-18T14:36:01;12.50;;;11.17;;
16792;SDS011;8513;42.662;23.350;2022-12-18T14:41:43;13.53;;;10.83;;
16792;SDS011;8513;42.662;23.350;2022-12-18T14:44:10;14.73;;;12.20;;
16792;SDS011;8513;42.662;23.350;2022-12-18T14:46:42;14.43;;;12.60;;
16792;SDS011;8513;42.662;23.350;2022-12-18T14:51:56;12.90;;;10.83;;
16792;SDS011;8513;42.662;23.350;2022-12-18T14:54:24;12.30;;;10.73;;
16792;SDS011;8513;42.662;23.350;2022-12-18T14:56:52;13.63;;;11.53;;
16792;SDS011;8513;42.662;23.350;2022-12-18T14:59:26;13.53;;;11.30;;
16792;SDS011;8513;42.662;23.350;2022-12-18T15:02:01;14.80;;;11.70;;
16792;SDS011;8513;42.662;23.350;2022-12-18T15:04:29;15.60;;;12.20;;
16792;SDS011;8513;42.662;23.350;2022-12-18T15:07:11;14.67;;;12.63;;
16792;SDS011;8513;42.662;23.350;2022-12-18T15:09:41;13.47;;;11.60;;
16792;SDS011;8513;42.662;23.350;2022-12-18T15:15:00;13.47;;;11.10;;
16792;SDS011;8513;42.662;23.350;2022-12-18T15:17:25;14.70;;;12.80;;
16792;SDS011;8513;42.662;23.350;2022-12-18T15:19:53;14.40;;;12.27;;
16792;SDS011;8513;42.662;23.350;2022-12-18T15:24:52;13.67;;;11.70;;
16792;SDS011;8513;42.662;23.350;2022-12-18T15:27:22;14.63;;;11.70;;
16792;SDS011;8513;42.662;23.350;2022-12-18T15:32:39;13.80;;;11.90;;
16792;SDS011;8513;42.662;23.350;2022-12-18T15:37:34;13.57;;;11.07;;
16792;SDS011;8513;42.662;23.350;2022-12-18T15:40:00;14.13;;;11.00;;
16792;SDS011;8513;42.662;23.350;2022-12-18T15:42:27;13.33;;;11.57;;
16792;SDS011;8513;42.662;23.350;2022-12-18T15:45:11;14.53;;;11.63;;
16792;SDS011;8513;42.662;23.350;2022-12-18T15:47:38;14.37;;;11.77;;
16792;SDS011;8513;42.662;23.350;2022-12-18T15:50:03;16.10;;;13.80;;
16792;SDS011;8513;42.662;23.350;2022-12-18T15:52:37;16.07;;;13.10;;
16792;SDS011;8513;42.662;23.350;2022-12-18T15:55:14;16.90;;;13.27;;
16792;SDS011;8513;42.662;23.350;2022-12-18T15:58:03;14.87;;;12.47;;
16792;SDS011;8513;42.662;23.350;2022-12-18T16:00:29;15.80;;;12.73;;
16792;SDS011;8513;42.662;23.350;2022-12-18T16:02:55;14.80;;;12.57;;
16792;SDS011;8513;42.662;23.350;2022-12-18T16:05:21;15.20;;;12.63;;
16792;SDS011;8513;42.662;23.350;2022-12-18T16:07:48;15.53;;;12.83;;
16792;SDS011;8513;42.662;23.350;2022-12-18T16:10:13;14.93;;;12.27;;
16792;SDS011;8513;42.662;23.350;2022-12-18T16:12:39;16.43;;;13.53;;
16792;SDS011;8513;42.662;23.350;2022-12-18T16:15:06;17.63;;;13.70;;
16792;SDS011;8513;42.662;23.350;2022-12-18T16:17:33;17.30;;;13.70;;
16792;SDS011;8513;42.662;23.350;2022-12-18T16:19:58;15.63;;;13.73;;
16792;SDS011;8513;42.662;23.350;2022-12-18T16:22:29;16.47;;;13.33;;
16792;SDS011;8513;42.662;23.350;2022-12-18T16:24:56;16.37;;;13.23;;
16792;SDS011;8513;42.662;23.350;2022-12-18T16:27:22;16.53;;;13.20;;
16792;SDS011;8513;42.662;23.350;2022-12-18T16:29:49;15.30;;;13.07;;
16792;SDS011;8513;42.662;23.350;2022-12-18T16:32:16;17.00;;;13.90;;
16792;SDS011;8513;42.662;23.350;2022-12-18T16:34:43;14.07;;;11.20;;
16792;SDS011;8513;42.662;23.350;2022-12-18T16:37:11;15.87;;;12.20;;
16792;SDS011;8513;42.662;23.350;2022-12-18T16:39:38;15.10;;;12.07;;
16792;SDS011;8513;42.662;23.350;2022-12-18T16:42:05;15.27;;;11.70;;
16792;SDS011;8513;42.662;23.350;2022-12-18T16:44:44;14.50;;;12.90;;
16792;SDS011;8513;42.662;23.350;2022-12-18T16:47:11;14.67;;;12.10;;
16792;SDS011;8513;42.662;23.350;2022-12-18T16:49:37;17.30;;;13.37;;
16792;SDS011;8513;42.662;23.350;2022-12-18T16:52:03;15.47;;;12.90;;
16792;SDS011;8513;42.662;23.350;2022-12-18T16:54:30;14.67;;;12.63;;
16792;SDS011;8513;42.662;23.350;2022-12-18T16:56:55;14.10;;;12.13;;
16792;SDS011;8513;42.662;23.350;2022-12-18T16:59:23;15.80;;;12.37;;
16792;SDS011;8513;42.662;23.350;2022-12-18T17:01:51;14.03;;;12.00;;
16792;SDS011;8513;42.662;23.350;2022-12-18T17:04:19;19.90;;;13.40;;
16792;SDS011;8513;42.662;23.350;2022-12-18T17:06:45;14.90;;;12.87;;
16792;SDS011;8513;42.662;23.350;2022-12-18T17:09:15;16.53;;;13.27;;
16792;SDS011;8513;42.662;23.350;2022-12-18T17:11:43;14.97;;;12.93;;
16792;SDS011;8513;42.662;23.350;2022-12-18T17:14:12;17.07;;;13.40;;